KIPT/IPT METAR and TAF weather

Enter ICAO airport designator
Station Type Date Time Source
KIPT METAR 2019/06/18 16:28 UTC NOAA

KIPT 181628Z 07005KT 1 3/4SM +RA BR BKN006 BKN041 OVC049 20/18 A2990 RMK AO2 P0014 T02000178


Station Type Date Time Source
KIPT Decoded METAR 2019/06/18 16:28 UTC NOAA

WILLIAMSPORT-LYCOMING COUNTY, PA, United States (KIPT) 41-15N 076-55W 164M
Jun 18, 2019 - 12:28 PM EDT / 2019.06.18 1628 UTC
Wind: from the ENE (070 degrees) at 6 MPH (5 KT):0
Visibility: 1 3/4 mile(s):0
Sky conditions: overcast
Weather: heavy rain; mist
Precipitation last hour: 0.14 inches
Temperature: 68.0 F (20.0 C)
Dew Point: 64.0 F (17.8 C)
Relative Humidity: 87%
Pressure (altimeter): 29.9 in. Hg (1012 hPa)
ob: KIPT 181628Z 07005KT 1 3/4SM +RA BR BKN006 BKN041 OVC049 20/18 A2990 RMK AO2 P0014 T02000178
cycle: 16

Station Type Date Time Source
KIPT TAF 2019/06/18 14:12 UTC NOAA

TAF
AMD KIPT 181411Z 1814/1912 00000KT P6SM OVC010
FM181445 VRB02KT 4SM -RA BKN015 OVC030
FM181700 28005KT P6SM VCSH BKN035
FM190400 VRB03KT 4SM BR SCT004 BKN025
FM190900 VRB03KT 2SM BR BKN004

Example: see airport list